createdAt,value
2022-12-09T00:01:32.911Z,16.33
2022-12-09T00:04:02.911Z,17.48
2022-12-09T00:06:33.476Z,15.63
2022-12-09T00:09:01.036Z,15.65
2022-12-09T00:11:31.578Z,15.13
2022-12-09T00:14:01.188Z,14.00
2022-12-09T00:16:28.847Z,15.52
2022-12-09T00:18:57.701Z,15.68
2022-12-09T00:21:31.441Z,17.13
2022-12-09T00:24:01.520Z,16.80
2022-12-09T00:26:32.179Z,17.90
2022-12-09T00:28:59.740Z,17.67
2022-12-09T00:31:30.423Z,22.90
2022-12-09T00:34:02.021Z,15.93
2022-12-09T00:36:30.189Z,17.45
2022-12-09T00:39:00.091Z,16.40
2022-12-09T00:41:28.364Z,17.33
2022-12-09T00:43:55.824Z,17.02
2022-12-09T00:46:23.453Z,15.88
2022-12-09T00:48:53.741Z,18.35
2022-12-09T00:51:25.222Z,17.15
2022-12-09T00:53:53.247Z,16.77
2022-12-09T00:56:25.968Z,17.27
2022-12-09T00:58:53.304Z,16.17
2022-12-09T01:01:23.924Z,17.75
2022-12-09T01:03:51.622Z,17.10
2022-12-09T01:06:22.162Z,16.90
2022-12-09T01:08:49.538Z,16.15
2022-12-09T01:11:28.868Z,15.48
2022-12-09T01:13:59.666Z,16.80
2022-12-09T01:16:32.210Z,17.17
2022-12-09T01:19:01.976Z,16.13
2022-12-09T01:21:30.458Z,16.95
2022-12-09T01:24:00.283Z,17.08
2022-12-09T01:26:28.185Z,18.13
2022-12-09T01:28:58.253Z,17.85
2022-12-09T01:31:28.206Z,15.68
2022-12-09T01:33:56.401Z,17.00
2022-12-09T01:36:29.091Z,16.48
2022-12-09T01:39:00.691Z,17.50
2022-12-09T01:41:31.397Z,14.70
2022-12-09T01:44:18.169Z,16.10
2022-12-09T01:46:46.417Z,16.85
2022-12-09T01:49:31.395Z,15.63
2022-12-09T01:52:10.499Z,15.73
2022-12-09T01:54:43.094Z,14.60
2022-12-09T01:57:10.928Z,13.77
2022-12-09T01:59:39.479Z,14.05
2022-12-09T02:02:14.468Z,14.80
2022-12-09T02:04:42.715Z,13.80
2022-12-09T02:07:11.164Z,15.15
2022-12-09T02:09:40.049Z,13.90
2022-12-09T02:12:24.087Z,15.23
2022-12-09T02:15:04.688Z,14.75
2022-12-09T02:17:39.894Z,15.27
2022-12-09T02:20:29.984Z,16.00
2022-12-09T02:23:11.395Z,16.15
2022-12-09T02:25:49.624Z,16.52
2022-12-09T02:28:22.957Z,16.88
2022-12-09T02:31:25.693Z,12.52
2022-12-09T02:34:17.416Z,17.30
2022-12-09T02:37:00.458Z,15.38
2022-12-09T02:39:42.293Z,15.18
2022-12-09T02:42:17.316Z,14.60
2022-12-09T02:44:50.081Z,15.60
2022-12-09T02:47:21.671Z,15.70
2022-12-09T02:49:52.396Z,16.63
2022-12-09T02:52:21.744Z,18.80
2022-12-09T02:54:52.539Z,17.73
2022-12-09T02:57:24.766Z,16.83
2022-12-09T02:59:53.078Z,16.98
2022-12-09T03:02:20.404Z,17.15
2022-12-09T03:05:04.693Z,16.85
2022-12-09T03:07:36.502Z,16.98
2022-12-09T03:10:16.121Z,16.35
2022-12-09T03:12:50.850Z,16.55
2022-12-09T03:15:23.127Z,17.65
2022-12-09T03:17:52.940Z,17.02
2022-12-09T03:20:29.795Z,17.08
2022-12-09T03:23:00.926Z,16.42
2022-12-09T03:25:38.419Z,16.38
2022-12-09T03:28:14.192Z,18.17
2022-12-09T03:30:44.939Z,17.27
2022-12-09T03:33:15.803Z,16.70
2022-12-09T03:35:49.603Z,19.85
2022-12-09T03:38:21.073Z,17.08
2022-12-09T03:40:54.551Z,17.75
2022-12-09T03:43:37.485Z,14.30
2022-12-09T03:46:05.584Z,17.67
2022-12-09T03:48:35.839Z,17.58
2022-12-09T03:51:14.382Z,17.52
2022-12-09T03:53:43.700Z,17.92
2022-12-09T03:56:27.837Z,17.52
2022-12-09T03:58:57.906Z,17.25
2022-12-09T04:01:27.130Z,18.67
2022-12-09T04:03:56.444Z,17.52
2022-12-09T04:06:24.728Z,18.00
2022-12-09T04:08:52.015Z,17.00
2022-12-09T04:11:19.662Z,18.80
2022-12-09T04:13:46.873Z,17.80
2022-12-09T04:16:14.241Z,17.50
2022-12-09T04:18:42.590Z,16.98
2022-12-09T04:21:13.945Z,16.55
2022-12-09T04:23:43.468Z,19.50
2022-12-09T04:26:17.128Z,17.83
2022-12-09T04:28:44.223Z,19.83
2022-12-09T04:31:13.716Z,20.10
2022-12-09T04:33:41.924Z,21.20
2022-12-09T04:36:12.568Z,20.17
2022-12-09T04:38:40.861Z,20.70
2022-12-09T04:41:11.658Z,20.42
2022-12-09T04:43:39.521Z,19.77
2022-12-09T04:46:14.851Z,20.25
2022-12-09T04:48:45.079Z,19.85
2022-12-09T04:51:16.415Z,22.33
2022-12-09T04:53:44.469Z,19.95
2022-12-09T04:56:15.874Z,19.20
2022-12-09T04:58:43.584Z,18.35
2022-12-09T05:01:15.670Z,21.60
2022-12-09T05:06:16.314Z,18.50
2022-12-09T05:08:46.187Z,17.73
2022-12-09T05:11:18.168Z,18.33
2022-12-09T05:13:46.045Z,18.05
2022-12-09T05:16:17.286Z,17.45
2022-12-09T05:18:48.899Z,16.27
2022-12-09T05:21:19.491Z,16.70
2022-12-09T05:23:47.312Z,17.40
2022-12-09T05:26:19.992Z,17.45
2022-12-09T05:28:47.527Z,18.38
2022-12-09T05:31:17.962Z,17.58
2022-12-09T05:33:48.796Z,17.63
2022-12-09T05:36:19.058Z,17.77
2022-12-09T05:38:46.444Z,16.85
2022-12-09T05:41:14.161Z,18.02
2022-12-09T05:43:43.992Z,17.08
2022-12-09T05:46:14.864Z,18.35
2022-12-09T05:48:42.557Z,18.27
2022-12-09T05:51:18.688Z,17.50
2022-12-09T05:53:46.375Z,16.60
2022-12-09T05:56:18.860Z,22.02
2022-12-09T05:58:49.294Z,25.98
2022-12-09T06:01:17.344Z,21.50
2022-12-09T06:03:48.174Z,22.13
2022-12-09T06:06:22.063Z,22.73
2022-12-09T06:08:50.174Z,22.40
2022-12-09T06:11:21.156Z,22.73
2022-12-09T06:13:50.519Z,22.35
2022-12-09T06:16:20.926Z,22.45
2022-12-09T06:18:49.426Z,22.52
2022-12-09T06:21:20.869Z,22.88
2022-12-09T06:23:49.926Z,22.42
2022-12-09T06:26:20.903Z,21.77
2022-12-09T06:28:48.809Z,24.52
2022-12-09T06:31:16.835Z,23.05
2022-12-09T06:33:55.933Z,22.13
2022-12-09T06:36:26.196Z,26.33
2022-12-09T06:38:54.156Z,24.70
2022-12-09T06:41:21.869Z,23.45
2022-12-09T06:43:49.455Z,23.10
2022-12-09T06:46:21.396Z,24.55
2022-12-09T06:48:51.192Z,27.05
2022-12-09T06:51:19.843Z,24.23
2022-12-09T06:53:47.545Z,21.58
2022-12-09T06:56:18.493Z,23.75
2022-12-09T06:58:46.780Z,25.85
2022-12-09T07:01:18.132Z,26.20
2022-12-09T07:03:48.418Z,27.90
2022-12-09T07:06:36.279Z,26.02
2022-12-09T07:09:06.797Z,25.95
2022-12-09T07:11:37.810Z,27.23
2022-12-09T07:14:05.354Z,22.90
2022-12-09T07:16:33.023Z,22.13
2022-12-09T07:19:01.171Z,20.00
2022-12-09T07:21:31.565Z,20.83
2022-12-09T07:24:03.173Z,21.88
2022-12-09T07:26:33.132Z,22.25
2022-12-09T07:29:05.885Z,23.40
2022-12-09T07:31:34.566Z,22.50
2022-12-09T07:34:05.599Z,22.38
2022-12-09T07:36:37.272Z,26.63
2022-12-09T07:39:17.047Z,24.00
2022-12-09T07:41:45.408Z,25.83
2022-12-09T07:44:12.802Z,24.27
2022-12-09T07:46:40.899Z,24.48
2022-12-09T07:49:11.782Z,23.42
2022-12-09T07:51:40.155Z,21.92
2022-12-09T07:54:10.644Z,22.73
2022-12-09T07:56:38.523Z,22.83
2022-12-09T07:59:10.358Z,20.92
2022-12-09T08:01:38.564Z,21.58
2022-12-09T08:04:10.034Z,23.02
2022-12-09T08:06:40.672Z,24.00
2022-12-09T08:09:12.097Z,24.77
2022-12-09T08:11:42.706Z,25.30
2022-12-09T08:14:12.901Z,24.50
2022-12-09T08:16:42.583Z,24.83
2022-12-09T08:19:11.112Z,24.00
2022-12-09T08:21:41.797Z,24.60
2022-12-09T08:24:11.729Z,23.77
2022-12-09T08:26:39.977Z,35.67
2022-12-09T08:29:09.308Z,25.73
2022-12-09T08:31:42.362Z,25.65
2022-12-09T08:34:10.264Z,24.92
2022-12-09T08:36:41.043Z,25.60
2022-12-09T08:39:12.414Z,26.52
2022-12-09T08:41:40.720Z,27.83
2022-12-09T08:44:08.192Z,26.58
2022-12-09T08:46:38.084Z,26.60
2022-12-09T08:49:06.534Z,25.35
2022-12-09T08:51:37.357Z,24.63
2022-12-09T08:54:05.970Z,25.27
2022-12-09T08:56:34.361Z,22.83
2022-12-09T08:59:02.194Z,23.58
2022-12-09T09:01:31.562Z,22.48
2022-12-09T09:04:02.513Z,23.45
2022-12-09T09:06:30.434Z,22.15
2022-12-09T09:09:00.428Z,21.98
2022-12-09T09:11:28.762Z,21.15
2022-12-09T09:13:56.213Z,19.50
2022-12-09T09:16:26.464Z,20.17
2022-12-09T09:18:54.376Z,22.27
2022-12-09T09:21:24.254Z,20.45
2022-12-09T09:23:51.927Z,19.70
2022-12-09T09:26:22.854Z,20.42
2022-12-09T09:28:50.292Z,20.38
2022-12-09T09:31:21.154Z,19.00
2022-12-09T09:33:49.751Z,19.52
2022-12-09T09:36:23.040Z,19.98
2022-12-09T09:38:55.291Z,19.25
2022-12-09T09:41:32.574Z,19.45
2022-12-09T09:44:01.061Z,19.00
2022-12-09T09:46:44.089Z,19.35
2022-12-09T09:49:34.612Z,19.13
2022-12-09T09:52:11.537Z,20.27
2022-12-09T09:54:38.864Z,20.40
2022-12-09T09:57:24.180Z,22.60
2022-12-09T10:00:07.037Z,22.70
2022-12-09T10:03:04.059Z,21.98
2022-12-09T10:05:34.736Z,22.38
2022-12-09T10:08:38.897Z,22.63
2022-12-09T10:11:27.206Z,21.50
2022-12-09T10:14:11.100Z,22.17
2022-12-09T10:17:01.590Z,23.20
2022-12-09T10:19:36.972Z,22.35
2022-12-09T10:22:21.266Z,18.85
2022-12-09T10:24:55.623Z,20.67
2022-12-09T10:27:38.101Z,19.58
2022-12-09T10:30:16.388Z,18.63
2022-12-09T10:32:44.941Z,17.20
2022-12-09T10:35:14.599Z,16.02
2022-12-09T10:37:43.108Z,15.60
2022-12-09T10:40:11.176Z,16.80
2022-12-09T10:42:44.767Z,14.63
2022-12-09T10:45:14.476Z,15.15
2022-12-09T10:47:49.914Z,17.10
2022-12-09T10:50:37.244Z,18.25
2022-12-09T10:53:17.345Z,15.57
2022-12-09T10:55:52.068Z,13.82
2022-12-09T10:58:23.732Z,13.48
2022-12-09T11:01:11.107Z,13.00
2022-12-09T11:03:50.639Z,13.73
2022-12-09T11:06:24.690Z,14.27
2022-12-09T11:09:02.609Z,15.00
2022-12-09T11:11:39.597Z,15.10
2022-12-09T11:14:30.514Z,14.90
2022-12-09T11:17:11.160Z,17.33
2022-12-09T11:19:41.857Z,18.38
2022-12-09T11:22:21.449Z,14.68
2022-12-09T11:24:54.540Z,14.98
2022-12-09T11:27:28.171Z,13.85
2022-12-09T11:30:14.413Z,13.10
2022-12-09T11:32:56.716Z,15.02
2022-12-09T11:35:29.700Z,12.55
2022-12-09T11:40:32.937Z,13.27
2022-12-09T11:43:02.914Z,11.20
2022-12-09T11:45:45.676Z,10.43
2022-12-09T11:48:32.016Z,11.43
2022-12-09T11:51:02.437Z,9.93
2022-12-09T11:53:34.597Z,10.63
2022-12-09T11:56:05.633Z,10.13
2022-12-09T11:58:42.191Z,10.95
2022-12-09T12:01:20.297Z,9.80
2022-12-09T12:04:01.284Z,11.25
2022-12-09T12:06:47.038Z,10.38
2022-12-09T12:09:25.042Z,10.93
2022-12-09T12:12:10.048Z,11.93
2022-12-09T12:14:42.013Z,11.90
2022-12-09T12:17:36.430Z,11.77
2022-12-09T12:20:05.710Z,12.43
2022-12-09T12:23:02.244Z,11.70
2022-12-09T12:26:06.291Z,13.07
2022-12-09T12:29:19.763Z,15.63
2022-12-09T12:32:10.237Z,27.02
2022-12-09T12:35:07.644Z,14.23
2022-12-09T12:37:56.119Z,14.40
2022-12-09T12:40:32.165Z,14.70
2022-12-09T12:43:29.953Z,16.63
2022-12-09T12:46:02.279Z,17.30
2022-12-09T12:49:01.826Z,18.08
2022-12-09T12:51:32.126Z,19.10
2022-12-09T12:54:08.857Z,19.58
2022-12-09T12:57:03.739Z,19.25
2022-12-09T12:59:33.779Z,20.83
2022-12-09T13:02:32.314Z,19.45
2022-12-09T13:05:13.444Z,20.98
2022-12-09T13:07:48.327Z,21.33
2022-12-09T13:10:19.645Z,20.75
2022-12-09T13:12:50.869Z,21.60
2022-12-09T13:15:40.321Z,21.52
2022-12-09T13:18:15.914Z,20.23
2022-12-09T13:20:51.401Z,19.88
2022-12-09T13:23:37.268Z,21.65
2022-12-09T13:26:24.651Z,19.80
2022-12-09T13:28:57.397Z,19.90
2022-12-09T13:31:30.500Z,21.80
2022-12-09T13:34:19.303Z,19.75
2022-12-09T13:36:49.448Z,21.30
2022-12-09T13:39:42.007Z,19.98
2022-12-09T13:42:27.713Z,20.38
2022-12-09T13:45:05.699Z,20.15
2022-12-09T13:47:36.794Z,20.90
2022-12-09T13:50:07.651Z,22.63
2022-12-09T13:52:52.882Z,23.85
2022-12-09T13:55:23.824Z,24.42
2022-12-09T13:58:04.662Z,24.27
2022-12-09T14:00:34.958Z,24.42
2022-12-09T14:03:23.330Z,24.30
2022-12-09T14:05:58.501Z,23.55
2022-12-09T14:08:34.396Z,26.73
2022-12-09T14:11:37.619Z,28.13
2022-12-09T14:14:28.205Z,29.65
2022-12-09T14:17:16.538Z,27.70
2022-12-09T14:20:20.456Z,25.67
2022-12-09T14:23:12.365Z,24.73
2022-12-09T14:25:50.939Z,25.30
2022-12-09T14:28:50.013Z,22.15
2022-12-09T14:32:09.477Z,23.08
2022-12-09T14:34:39.715Z,25.83
2022-12-09T14:37:19.016Z,26.08
2022-12-09T14:40:05.274Z,27.38
2022-12-09T14:42:46.235Z,24.55
2022-12-09T14:45:36.089Z,24.67
2022-12-09T14:48:10.306Z,25.08
2022-12-09T14:50:38.336Z,25.77
2022-12-09T14:53:19.111Z,26.45
2022-12-09T14:55:49.833Z,26.25
2022-12-09T14:58:20.393Z,25.92
2022-12-09T15:00:57.943Z,26.60
2022-12-09T15:03:36.935Z,25.08
2022-12-09T15:06:17.616Z,26.15
2022-12-09T15:08:45.426Z,27.40
2022-12-09T15:11:17.150Z,24.45
2022-12-09T15:13:47.367Z,26.17
2022-12-09T15:16:26.123Z,27.65
2022-12-09T15:18:56.092Z,28.42
2022-12-09T15:21:31.549Z,28.52
2022-12-09T15:24:00.780Z,30.00
2022-12-09T15:26:31.340Z,28.52
2022-12-09T15:28:59.466Z,28.08
2022-12-09T15:31:29.611Z,28.50
2022-12-09T15:34:00.406Z,29.33
2022-12-09T15:36:40.287Z,30.67
2022-12-09T15:39:13.430Z,29.75
2022-12-09T15:41:50.188Z,34.25
2022-12-09T15:44:20.228Z,33.92
2022-12-09T15:46:53.010Z,31.30
2022-12-09T15:49:27.117Z,29.65
2022-12-09T15:51:56.286Z,31.17
2022-12-09T15:54:29.675Z,31.05
2022-12-09T15:56:58.938Z,32.70
2022-12-09T15:59:40.094Z,35.58
2022-12-09T16:02:09.923Z,33.70
2022-12-09T16:04:43.285Z,36.42
2022-12-09T16:07:16.232Z,34.60
2022-12-09T16:10:00.056Z,33.30
2022-12-09T16:12:29.847Z,33.85
2022-12-09T16:14:57.495Z,32.65
2022-12-09T16:17:29.189Z,32.58
2022-12-09T16:19:59.403Z,33.53
2022-12-09T16:22:33.087Z,31.10
2022-12-09T16:27:47.604Z,27.10
2022-12-09T16:30:22.443Z,28.75
2022-12-09T16:32:55.874Z,32.00
2022-12-09T16:35:29.159Z,32.30
2022-12-09T16:37:56.624Z,33.42
2022-12-09T16:40:24.106Z,31.58
2022-12-09T16:43:15.577Z,30.30
2022-12-09T16:45:44.440Z,30.40
2022-12-09T16:48:12.232Z,29.10
2022-12-09T16:50:48.827Z,29.48
2022-12-09T16:53:22.729Z,27.13
2022-12-09T16:55:55.651Z,27.95
2022-12-09T16:58:23.411Z,27.55
2022-12-09T17:00:51.107Z,27.20
2022-12-09T17:03:32.139Z,28.83
2022-12-09T17:05:59.688Z,30.30
2022-12-09T17:08:26.861Z,29.08
2022-12-09T17:10:56.529Z,30.70
2022-12-09T17:13:23.930Z,28.65
2022-12-09T17:15:52.540Z,31.38
2022-12-09T17:18:19.924Z,31.88
2022-12-09T17:20:47.578Z,32.10
2022-12-09T17:23:14.774Z,29.42
2022-12-09T17:25:42.203Z,33.55
2022-12-09T17:28:09.388Z,33.00
2022-12-09T17:30:38.460Z,32.42
2022-12-09T17:33:06.596Z,33.17
2022-12-09T17:35:38.443Z,36.63
2022-12-09T17:38:05.565Z,35.17
2022-12-09T17:40:37.531Z,34.88
2022-12-09T17:43:07.474Z,35.42
2022-12-09T17:45:40.353Z,35.47
2022-12-09T17:48:11.436Z,34.10
2022-12-09T17:50:39.757Z,33.83
2022-12-09T17:53:06.944Z,33.67
2022-12-09T17:55:34.526Z,37.75
2022-12-09T17:58:01.642Z,34.20
2022-12-09T18:00:31.780Z,30.90
2022-12-09T18:03:01.289Z,32.22
2022-12-09T18:05:28.928Z,33.20
2022-12-09T18:07:56.354Z,32.70
2022-12-09T18:10:23.987Z,31.88
2022-12-09T18:12:53.495Z,31.35
2022-12-09T18:15:20.913Z,31.80
2022-12-09T18:17:50.661Z,34.85
2022-12-09T18:20:20.589Z,37.75
2022-12-09T18:22:47.652Z,37.75
2022-12-09T18:25:15.265Z,36.65
2022-12-09T18:27:44.886Z,35.97
2022-12-09T18:30:12.664Z,36.17
2022-12-09T18:32:40.122Z,37.17
2022-12-09T18:35:07.718Z,38.95
2022-12-09T18:37:34.828Z,37.53
2022-12-09T18:40:02.298Z,40.10
2022-12-09T18:42:31.920Z,40.08
2022-12-09T18:44:59.322Z,39.17
2022-12-09T18:47:26.466Z,40.05
2022-12-09T18:49:53.779Z,40.30
2022-12-09T18:52:20.931Z,46.22
2022-12-09T18:54:55.898Z,47.33
2022-12-09T18:57:30.561Z,45.40
2022-12-09T19:00:03.813Z,47.95
2022-12-09T19:02:33.922Z,46.00
2022-12-09T19:05:01.808Z,46.17
2022-12-09T19:07:32.517Z,46.22
2022-12-09T19:10:00.070Z,45.58
2022-12-09T19:12:46.497Z,43.65
2022-12-09T19:15:14.593Z,45.25
2022-12-09T19:17:41.789Z,43.22
2022-12-09T19:20:10.033Z,44.22
2022-12-09T19:22:37.256Z,45.05
2022-12-09T19:25:05.636Z,41.90
2022-12-09T19:27:32.767Z,41.08
2022-12-09T19:30:00.386Z,42.70
2022-12-09T19:35:09.366Z,41.55
2022-12-09T19:37:38.793Z,43.92
2022-12-09T19:40:07.244Z,45.85
2022-12-09T19:42:34.608Z,44.05
2022-12-09T19:45:04.410Z,45.55
2022-12-09T19:47:33.728Z,45.03
2022-12-09T19:50:02.655Z,45.45
2022-12-09T19:52:34.392Z,43.08
2022-12-09T19:55:10.525Z,46.03
2022-12-09T19:57:37.895Z,47.47
2022-12-09T20:00:06.094Z,44.83
2022-12-09T20:02:37.908Z,45.75
2022-12-09T20:05:06.140Z,46.70
2022-12-09T20:07:33.320Z,44.92
2022-12-09T20:10:08.576Z,44.35
2022-12-09T20:12:36.412Z,46.47
2022-12-09T20:15:04.799Z,45.30
2022-12-09T20:17:32.299Z,50.58
2022-12-09T20:20:02.239Z,48.15
2022-12-09T20:22:31.507Z,48.50
2022-12-09T20:24:59.064Z,48.58
2022-12-09T20:27:26.598Z,49.13
2022-12-09T20:29:54.120Z,49.65
2022-12-09T20:32:21.489Z,49.53
2022-12-09T20:34:49.198Z,49.28
2022-12-09T20:37:16.401Z,49.05
2022-12-09T20:39:45.368Z,46.55
2022-12-09T20:42:12.562Z,46.80
2022-12-09T20:44:41.150Z,45.92
2022-12-09T20:47:08.450Z,48.17
2022-12-09T20:49:36.153Z,46.58
2022-12-09T20:52:03.350Z,46.05
2022-12-09T20:54:31.441Z,45.30
2022-12-09T20:56:58.922Z,45.22
2022-12-09T20:59:26.375Z,43.08
2022-12-09T21:01:53.607Z,44.38
2022-12-09T21:04:21.808Z,46.97
2022-12-09T21:06:49.259Z,45.38
2022-12-09T21:09:18.782Z,48.45
2022-12-09T21:11:46.666Z,43.85
2022-12-09T21:14:15.015Z,44.45
2022-12-09T21:16:43.558Z,42.70
2022-12-09T21:19:17.294Z,45.35
2022-12-09T21:21:46.047Z,43.97
2022-12-09T21:24:14.930Z,43.70
2022-12-09T21:26:44.307Z,42.65
2022-12-09T21:29:12.353Z,42.67
2022-12-09T21:31:41.179Z,43.97
2022-12-09T21:34:09.893Z,43.33
2022-12-09T21:36:41.077Z,42.97
2022-12-09T21:39:13.183Z,42.63
2022-12-09T21:41:41.500Z,43.10
2022-12-09T21:44:13.076Z,40.85
2022-12-09T21:46:40.340Z,41.17
2022-12-09T21:49:07.784Z,38.17
2022-12-09T21:51:35.502Z,39.75
2022-12-09T21:54:03.598Z,41.17
2022-12-09T21:56:33.760Z,39.97
2022-12-09T21:59:02.275Z,38.40
2022-12-09T22:01:35.891Z,41.58
2022-12-09T22:06:31.822Z,39.80
2022-12-09T22:09:00.648Z,41.97
2022-12-09T22:11:30.814Z,42.35
2022-12-09T22:13:59.790Z,44.17
2022-12-09T22:16:34.205Z,42.88
2022-12-09T22:19:03.324Z,42.88
2022-12-09T22:21:31.786Z,43.70
2022-12-09T22:24:02.964Z,45.10
2022-12-09T22:26:32.661Z,44.75
2022-12-09T22:29:04.894Z,44.67
2022-12-09T22:31:36.397Z,46.63
2022-12-09T22:34:06.905Z,44.72
2022-12-09T22:36:34.295Z,44.55
2022-12-09T22:39:05.861Z,47.42
2022-12-09T22:41:41.353Z,46.30
2022-12-09T22:44:10.440Z,44.95
2022-12-09T22:46:40.079Z,46.47
2022-12-09T22:49:07.607Z,45.75
2022-12-09T22:51:36.540Z,46.38
2022-12-09T22:54:10.284Z,46.28
2022-12-09T22:56:39.366Z,48.03
2022-12-09T22:59:09.352Z,47.55
2022-12-09T23:01:37.239Z,46.15
2022-12-09T23:04:06.495Z,46.65
2022-12-09T23:06:36.474Z,46.60
2022-12-09T23:09:05.121Z,43.30
2022-12-09T23:11:32.298Z,43.50
2022-12-09T23:14:00.456Z,45.90
2022-12-09T23:16:30.378Z,48.30
2022-12-09T23:18:59.090Z,45.20
2022-12-09T23:21:31.128Z,45.72
2022-12-09T23:24:01.011Z,44.00
2022-12-09T23:26:30.752Z,46.47
2022-12-09T23:29:00.986Z,46.15
2022-12-09T23:31:32.012Z,46.60
2022-12-09T23:34:00.442Z,44.75
2022-12-09T23:36:31.012Z,45.45
2022-12-09T23:38:59.741Z,48.15
2022-12-09T23:41:32.038Z,45.92
2022-12-09T23:43:59.535Z,45.60
2022-12-09T23:46:28.344Z,47.28
2022-12-09T23:48:56.355Z,44.13
2022-12-09T23:51:29.971Z,48.28
2022-12-09T23:56:31.755Z,45.80
2022-12-09T23:59:02.444Z,47.03
